Tuesday, October 17, 2017, 2:56 PM EDT
Back to Local

KMPO, Mt Pocono Pocono Mountains

Location: Pocono Summit, PA, United States Lat: 41.133
Local Time: 2:56 PM EDT (18:56 GMT) Lon: -75.383
Time Zone: US/Eastern Elev: 1915 ft

Show me the last for .
Show Decoded

2017-10-17 13:53 METAR KMPO 171753Z AUTO 23003KT 10SM CLR 12/M04 A3025 RMK AO2 SLP255 T01221044
                 10122 20006 58014 =
2017-10-17 12:53 METAR KMPO 171653Z AUTO 27005KT 10SM CLR 11/M04 A3028 RMK AO2 SLP264 T01111039 =
2017-10-17 11:53 METAR KMPO 171553Z AUTO 32004KT 10SM CLR 10/M03 A3029 RMK AO2 SLP269 T01001028 =
2017-10-17 10:53 METAR KMPO 171453Z AUTO 00000KT 10SM CLR 09/M02 A3030 RMK AO2 SLP272 T00891017
                 50006 =
2017-10-17 09:53 METAR KMPO 171353Z AUTO 32007KT 10SM CLR 06/M01 A3031 RMK AO2 SLP276 T00611011 =
2017-10-17 08:53 METAR KMPO 171253Z AUTO 34010KT 10SM CLR 04/M01 A3029 RMK AO2 SLP273 T00391006 =
2017-10-17 07:53 METAR KMPO 171153Z AUTO 33010G17KT 10SM CLR 01/M01 A3028 RMK AO2 SLP269
                 T00061006 10011 20000 51016 =
2017-10-17 06:53 METAR KMPO 171053Z AUTO 32003KT 10SM CLR 00/M01 A3027 RMK AO2 SLP268 T00001006 =
2017-10-17 05:53 METAR KMPO 170953Z AUTO 34010KT 10SM CLR 00/M01 A3025 RMK AO2 SLP259 T00001011 =
2017-10-17 04:53 METAR KMPO 170853Z AUTO 33008KT 10SM CLR 00/M01 A3023 RMK AO2 SLP250 T00001011
                 53009 =
2017-10-17 03:53 METAR KMPO 170753Z AUTO 32008KT 10SM CLR 01/M02 A3021 RMK AO2 SLP244 T00061017 =
2017-10-17 02:53 METAR KMPO 170653Z AUTO 33007KT 10SM CLR 01/M02 A3020 RMK AO2 SLP241 T00111017 =
2017-10-17 01:53 METAR KMPO 170553Z AUTO 32009KT 10SM CLR 01/M02 A3020 RMK AO2 SLP240 T00111017
                 10050 20011 55001 =
2017-10-17 00:53 METAR KMPO 170453Z AUTO 31008KT 10SM CLR 02/M02 A3020 RMK AO2 SLP239 T00171017
                 401440011 =
2017-10-16 23:53 METAR KMPO 170353Z AUTO 33007KT 10SM CLR 02/M02 A3020 RMK AO2 SLP241 T00171017 =
2017-10-16 22:53 METAR KMPO 170253Z AUTO 32006KT 10SM CLR 02/M01 A3020 RMK AO2 SLP240 T00221006
                 51019 =
2017-10-16 21:53 METAR KMPO 170153Z AUTO 33013G20KT 10SM CLR 03/M01 A3019 RMK AO2 SLP235
                 T00331006 =
2017-10-16 20:53 METAR KMPO 170053Z AUTO 33007G17KT 10SM CLR 04/00 A3016 RMK AO2 SLP226 T00390000
                 =
2017-10-16 19:53 METAR KMPO 162353Z AUTO 35008KT 10SM CLR 05/01 A3014 RMK AO2 SLP218 T00500006
                 10100 20050 53019 =
2017-10-16 18:53 METAR KMPO 162253Z AUTO VRB05KT 10SM CLR 06/00 A3011 RMK AO2 SLP207 T00560000 =
2017-10-16 17:53 METAR KMPO 162153Z AUTO 32010G20KT 10SM CLR 08/M01 A3009 RMK AO2 PK WND
                 32027/2112 SLP198 T00781006 =
2017-10-16 16:53 METAR KMPO 162053Z AUTO 32013G24KT 10SM CLR 08/M01 A3008 RMK AO2 PK WND
                 32026/2041 SLP193 T00831011 53014 =
2017-10-16 15:53 METAR KMPO 161953Z AUTO 34011G20KT 10SM BKN032 09/02 A3007 RMK AO2 PK WND
                 31032/1924 SLP186 T00890022 =

Support USWX by starting your Amazon purchase here.